createdAt,value
2023-02-02T07:05:24.020Z,7.46
2023-02-02T07:07:27.010Z,7.76
2023-02-02T07:09:29.729Z,8.00
2023-02-02T07:11:39.767Z,8.22
2023-02-02T07:13:49.450Z,8.36
2023-02-02T07:15:52.337Z,8.45
2023-02-02T07:17:56.265Z,8.54
2023-02-02T07:20:00.097Z,8.59
2023-02-02T07:22:04.367Z,8.64
2023-02-02T07:24:08.328Z,8.70
2023-02-02T07:26:12.645Z,8.75
2023-02-02T07:28:15.801Z,8.79
2023-02-02T07:30:18.897Z,8.83
2023-02-02T07:32:21.653Z,8.87
2023-02-02T07:34:24.670Z,8.89
2023-02-02T07:36:27.777Z,8.91
2023-02-02T07:38:31.911Z,8.92
2023-02-02T07:40:34.850Z,8.97
2023-02-02T07:42:37.606Z,8.97
2023-02-02T07:44:40.451Z,9.01
2023-02-02T07:46:43.527Z,8.99
2023-02-02T07:48:46.499Z,9.01
2023-02-02T07:50:49.254Z,9.04
2023-02-02T07:52:52.665Z,9.07
2023-02-02T07:55:12.587Z,9.08
2023-02-02T07:57:18.185Z,9.06
2023-02-02T07:59:21.085Z,9.08
2023-02-02T08:01:27.122Z,9.11
2023-02-02T08:03:30.064Z,9.12
2023-02-02T08:05:34.984Z,9.11
2023-02-02T08:07:38.006Z,9.08
2023-02-02T08:09:40.811Z,9.03
2023-02-02T08:11:45.940Z,9.03
2023-02-02T08:13:50.580Z,9.10
2023-02-02T08:15:53.489Z,9.13
2023-02-02T08:17:56.331Z,9.13
2023-02-02T08:19:59.864Z,9.16
2023-02-02T08:22:02.915Z,9.21
2023-02-02T08:24:06.172Z,9.24
2023-02-02T08:26:11.331Z,9.25
2023-02-02T08:28:15.510Z,9.29
2023-02-02T08:30:18.854Z,9.32
2023-02-02T08:32:21.908Z,9.36
2023-02-02T08:34:24.717Z,9.37
2023-02-02T08:36:29.317Z,9.39
2023-02-02T08:38:32.178Z,9.42
2023-02-02T08:40:34.991Z,9.44
2023-02-02T08:42:37.954Z,9.45
2023-02-02T08:45:59.461Z,9.48
2023-02-02T08:47:04.785Z,9.49
2023-02-02T08:49:08.686Z,9.49
2023-02-02T08:51:14.350Z,9.50
2023-02-02T08:53:17.275Z,9.52
2023-02-02T08:55:21.040Z,9.56
2023-02-02T08:57:23.977Z,9.56
2023-02-02T08:59:26.967Z,9.58
2023-02-02T09:01:32.795Z,9.56
2023-02-02T09:03:39.292Z,9.56
2023-02-02T09:05:42.015Z,9.55
2023-02-02T09:07:47.326Z,9.52
2023-02-02T09:09:50.960Z,9.51
2023-02-02T09:11:54.785Z,9.51
2023-02-02T09:13:59.636Z,9.52
2023-02-02T09:16:02.926Z,9.52
2023-02-02T09:18:07.549Z,9.54
2023-02-02T09:20:11.658Z,9.57
2023-02-02T09:22:14.541Z,9.59
2023-02-02T09:24:17.548Z,9.62
2023-02-02T09:26:26.532Z,9.66
2023-02-02T09:28:29.504Z,9.69
2023-02-02T09:30:32.309Z,9.70
2023-02-02T09:32:35.329Z,9.72
2023-02-02T09:34:40.825Z,9.73
2023-02-02T09:36:45.631Z,9.75
2023-02-02T09:38:49.569Z,9.76
2023-02-02T09:40:52.412Z,9.77
2023-02-02T09:43:07.962Z,9.77
2023-02-02T09:45:24.297Z,9.79
2023-02-02T09:47:44.109Z,9.81
2023-02-02T09:49:58.343Z,9.83
2023-02-02T09:52:09.739Z,9.85
2023-02-02T09:54:19.070Z,9.86
2023-02-02T09:56:25.640Z,9.85
2023-02-02T09:58:32.226Z,9.83
2023-02-02T10:00:39.874Z,9.86
2023-02-02T10:02:45.797Z,9.84
2023-02-02T10:04:53.941Z,9.85
2023-02-02T10:07:00.309Z,9.82
2023-02-02T10:09:16.861Z,9.77
2023-02-02T10:11:30.918Z,9.75
2023-02-02T10:13:37.896Z,9.74
2023-02-02T10:15:45.299Z,9.71
2023-02-02T10:17:55.361Z,9.68
2023-02-02T10:20:07.703Z,9.69
2023-02-02T10:22:15.410Z,9.70
2023-02-02T10:24:21.316Z,9.69
2023-02-02T10:26:35.269Z,9.68
2023-02-02T10:28:45.269Z,9.73
2023-02-02T10:30:55.162Z,9.76
2023-02-02T10:33:06.263Z,9.79
2023-02-02T10:35:35.606Z,9.84
2023-02-02T10:37:44.202Z,9.88
2023-02-02T10:40:06.731Z,9.91
2023-02-02T10:42:19.347Z,9.90
2023-02-02T10:44:34.704Z,9.93
2023-02-02T10:46:40.865Z,9.95
2023-02-02T10:48:47.225Z,9.93
2023-02-02T10:50:55.213Z,9.91
2023-02-02T10:53:02.939Z,9.92
2023-02-02T10:55:15.925Z,9.94
2023-02-02T10:57:31.563Z,9.92
2023-02-02T10:59:40.121Z,9.93
2023-02-02T11:01:43.694Z,9.95
2023-02-02T11:03:47.836Z,9.96
2023-02-02T11:06:09.853Z,9.92
2023-02-02T11:08:16.211Z,9.90
2023-02-02T11:10:19.232Z,9.90
2023-02-02T11:12:26.829Z,9.88
2023-02-02T11:14:45.306Z,9.91
2023-02-02T11:17:02.492Z,9.92
2023-02-02T11:19:23.991Z,9.93
2023-02-02T11:21:30.245Z,9.94
2023-02-02T11:23:33.504Z,9.93
2023-02-02T11:25:39.219Z,9.98
2023-02-02T11:27:44.882Z,10.03
2023-02-02T11:29:50.756Z,10.07
2023-02-02T11:31:53.744Z,10.15
2023-02-02T11:34:11.403Z,10.20
2023-02-02T11:36:20.968Z,10.24
2023-02-02T11:38:26.278Z,10.26
2023-02-02T11:40:33.219Z,10.28
2023-02-02T11:42:35.930Z,10.29
2023-02-02T11:44:40.878Z,10.32
2023-02-02T11:46:44.736Z,10.34
2023-02-02T11:48:53.039Z,10.36
2023-02-02T11:50:57.908Z,10.38
2023-02-02T11:53:01.024Z,10.36
2023-02-02T11:55:15.646Z,10.33
2023-02-02T11:57:21.522Z,10.33
2023-02-02T11:59:33.846Z,10.33
2023-02-02T12:01:39.583Z,10.33
2023-02-02T12:03:42.517Z,10.33
2023-02-02T12:05:49.523Z,10.35
2023-02-02T12:07:52.249Z,10.33
2023-02-02T12:10:00.167Z,10.34
2023-02-02T12:12:12.498Z,10.35
2023-02-02T12:14:32.800Z,10.38
2023-02-02T12:16:53.318Z,10.40
2023-02-02T12:19:23.784Z,10.36
2023-02-02T12:21:40.321Z,10.35
2023-02-02T12:23:58.317Z,10.32
2023-02-02T12:26:30.189Z,10.34
2023-02-02T12:28:52.337Z,10.35
2023-02-02T12:31:04.318Z,10.34
2023-02-02T12:33:24.427Z,10.33
2023-02-02T12:35:39.221Z,10.32
2023-02-02T12:37:54.060Z,10.36
2023-02-02T12:40:18.304Z,10.37
2023-02-02T12:42:39.836Z,10.37
2023-02-02T12:44:56.480Z,10.37
2023-02-02T12:47:09.980Z,10.41
2023-02-02T12:49:26.204Z,10.43
2023-02-02T12:51:49.056Z,10.41
2023-02-02T12:54:34.947Z,10.42
2023-02-02T12:56:45.292Z,10.44
2023-02-02T12:58:57.658Z,10.43
2023-02-02T13:01:27.799Z,10.45
2023-02-02T13:03:45.453Z,10.45
2023-02-02T13:06:05.550Z,10.43
2023-02-02T13:08:11.853Z,10.45
2023-02-02T13:10:21.606Z,10.49
2023-02-02T13:12:25.859Z,10.52
2023-02-02T13:14:33.759Z,10.56
2023-02-02T13:16:41.797Z,10.61
2023-02-02T13:18:52.858Z,10.65
2023-02-02T13:20:59.484Z,10.71
2023-02-02T13:23:09.473Z,10.77
2023-02-02T13:25:20.549Z,10.82
2023-02-02T13:27:25.003Z,10.89
2023-02-02T13:29:39.033Z,10.94
2023-02-02T13:32:00.470Z,11.03
2023-02-02T13:34:13.410Z,11.09
2023-02-02T13:36:25.856Z,11.16
2023-02-02T13:38:31.381Z,11.20
2023-02-02T13:40:40.060Z,11.21
2023-02-02T13:42:48.915Z,11.25
2023-02-02T13:44:57.197Z,11.28
2023-02-02T13:47:07.530Z,11.29
2023-02-02T13:49:14.586Z,11.31
2023-02-02T13:51:40.609Z,11.34
2023-02-02T13:53:57.363Z,11.33
2023-02-02T13:56:17.729Z,11.31
2023-02-02T13:58:48.098Z,11.33
2023-02-02T14:00:54.017Z,11.35
2023-02-02T14:03:03.842Z,11.36
2023-02-02T14:05:09.909Z,11.37
2023-02-02T14:07:12.704Z,11.36
2023-02-02T14:09:19.735Z,11.41
2023-02-02T14:11:26.956Z,11.41
2023-02-02T14:13:53.198Z,11.43
2023-02-02T14:15:58.073Z,11.48
2023-02-02T14:18:02.318Z,11.47
2023-02-02T14:20:06.573Z,11.47
2023-02-02T14:22:21.581Z,11.47
2023-02-02T14:24:43.417Z,11.48
2023-02-02T14:26:48.527Z,11.51
2023-02-02T14:28:51.858Z,11.49
2023-02-02T14:31:36.578Z,11.52
2023-02-02T14:33:48.307Z,11.53
2023-02-02T14:36:05.215Z,11.48
2023-02-02T14:38:14.445Z,11.49
2023-02-02T14:40:30.934Z,11.50
2023-02-02T14:43:08.827Z,11.52
2023-02-02T14:45:27.089Z,11.53
2023-02-02T14:47:47.923Z,11.53
2023-02-02T14:49:57.389Z,11.53
2023-02-02T14:52:03.018Z,11.53
2023-02-02T14:54:08.637Z,11.54
2023-02-02T14:56:14.411Z,11.57
2023-02-02T14:58:24.198Z,11.57
2023-02-02T15:00:31.175Z,11.54
2023-02-02T15:02:37.201Z,11.49
2023-02-02T15:04:40.355Z,11.48
2023-02-02T15:06:45.173Z,11.50
2023-02-02T15:09:08.132Z,11.44
2023-02-02T15:11:28.960Z,11.39
2023-02-02T15:13:37.670Z,11.37
2023-02-02T15:15:43.633Z,11.36
2023-02-02T15:17:56.159Z,11.33
2023-02-02T15:20:09.456Z,11.29
2023-02-02T15:22:26.822Z,11.24
2023-02-02T15:24:33.145Z,11.22
2023-02-02T15:26:42.848Z,11.19
2023-02-02T15:28:52.289Z,11.16
2023-02-02T15:31:01.035Z,11.15
2023-02-02T15:33:09.162Z,11.14
2023-02-02T15:35:19.734Z,11.13
2023-02-02T15:37:27.748Z,11.12
2023-02-02T15:39:33.939Z,11.12
2023-02-02T15:41:42.888Z,11.10
2023-02-02T15:43:47.118Z,11.08
2023-02-02T15:45:53.989Z,11.09
2023-02-02T15:47:58.840Z,11.06
2023-02-02T15:50:02.611Z,11.06
2023-02-02T15:52:14.303Z,11.04
2023-02-02T15:54:27.032Z,11.05
2023-02-02T15:56:31.938Z,11.03
2023-02-02T15:58:39.228Z,11.03
2023-02-02T16:00:42.174Z,11.04
2023-02-02T16:02:46.960Z,11.04
2023-02-02T16:04:50.080Z,11.01
2023-02-02T16:06:53.019Z,11.02
2023-02-02T16:08:55.986Z,11.01
2023-02-02T16:11:10.050Z,10.99
2023-02-02T16:13:24.907Z,10.98
2023-02-02T16:15:29.946Z,10.97
2023-02-02T16:17:35.408Z,10.97
2023-02-02T16:19:39.111Z,10.96
2023-02-02T16:21:47.963Z,10.93
2023-02-02T16:23:52.380Z,10.93
2023-02-02T16:25:58.462Z,10.92
2023-02-02T16:28:03.455Z,10.89
2023-02-02T16:30:08.889Z,10.88
2023-02-02T16:32:26.876Z,10.85
2023-02-02T16:34:47.132Z,10.77
2023-02-02T16:37:05.508Z,10.74
2023-02-02T16:39:17.232Z,10.73
2023-02-02T16:41:28.706Z,10.73
2023-02-02T16:43:32.873Z,10.70
2023-02-02T16:45:48.473Z,10.67
2023-02-02T16:47:54.958Z,10.61
2023-02-02T16:50:20.616Z,10.60
2023-02-02T16:52:23.634Z,10.57
2023-02-02T16:54:26.315Z,10.55
2023-02-02T16:56:34.070Z,10.54
2023-02-02T16:58:45.283Z,10.50
2023-02-02T17:01:12.262Z,10.44
2023-02-02T17:03:19.186Z,10.44
2023-02-02T17:05:25.250Z,10.40
2023-02-02T17:07:29.424Z,10.35
2023-02-02T17:09:36.224Z,10.35
2023-02-02T17:11:39.047Z,10.30
2023-02-02T17:13:43.270Z,10.28
2023-02-02T17:15:53.256Z,10.30
2023-02-02T17:17:56.475Z,10.31
2023-02-02T17:19:59.230Z,10.32
2023-02-02T17:22:05.539Z,10.32
2023-02-02T17:24:10.461Z,10.30
2023-02-02T17:26:14.025Z,10.30
2023-02-02T17:28:20.056Z,10.29
2023-02-02T17:30:24.583Z,10.28
2023-02-02T17:32:27.324Z,10.28
2023-02-02T17:34:30.968Z,10.29
2023-02-02T17:36:33.627Z,10.30
2023-02-02T17:38:36.361Z,10.31
2023-02-02T17:40:39.428Z,10.32
2023-02-02T17:42:44.036Z,10.31
2023-02-02T17:44:46.929Z,10.31
2023-02-02T17:46:51.087Z,10.30
2023-02-02T17:48:53.787Z,10.28
2023-02-02T17:50:56.564Z,10.27
2023-02-02T17:52:59.981Z,10.25
2023-02-02T17:55:02.970Z,10.28
2023-02-02T17:57:05.744Z,10.28
2023-02-02T17:59:08.450Z,10.29
2023-02-02T18:01:12.560Z,10.28
2023-02-02T18:03:22.191Z,10.25
2023-02-02T18:05:25.508Z,10.25
2023-02-02T18:07:28.540Z,10.21
2023-02-02T18:09:34.038Z,10.20
2023-02-02T18:11:36.786Z,10.22
2023-02-02T18:13:39.569Z,10.21
2023-02-02T18:15:42.417Z,10.20
2023-02-02T18:17:47.174Z,10.21
2023-02-02T18:19:52.957Z,10.18
2023-02-02T18:21:55.624Z,10.18
2023-02-02T18:23:58.417Z,10.19
2023-02-02T18:26:09.650Z,10.14
2023-02-02T18:28:15.189Z,10.15
2023-02-02T18:30:19.969Z,10.15
2023-02-02T18:32:22.906Z,10.15
2023-02-02T18:34:25.637Z,10.17
2023-02-02T18:36:29.739Z,10.18
2023-02-02T18:38:32.465Z,10.15
2023-02-02T18:40:35.239Z,10.14
2023-02-02T18:42:38.036Z,10.11
2023-02-02T18:44:42.854Z,10.08
2023-02-02T18:46:45.623Z,10.06
2023-02-02T18:48:48.330Z,10.05
2023-02-02T18:50:51.006Z,10.04
2023-02-02T18:52:56.635Z,10.02
2023-02-02T18:54:59.500Z,10.00
2023-02-02T18:57:02.325Z,9.97
2023-02-02T18:59:06.978Z,9.91
2023-02-02T19:01:10.635Z,9.84
2023-02-02T19:03:13.846Z,9.78
2023-02-02T19:05:34.151Z,9.73
2023-02-02T19:07:54.546Z,9.74
2023-02-02T19:09:59.327Z,9.78
2023-02-02T19:12:02.759Z,9.77
2023-02-02T19:14:12.268Z,9.77
2023-02-02T19:16:21.970Z,9.78
2023-02-02T19:18:25.830Z,9.79
2023-02-02T19:20:30.371Z,9.81
2023-02-02T19:22:33.562Z,9.84
2023-02-02T19:24:39.749Z,9.83
2023-02-02T19:26:47.056Z,9.82
2023-02-02T19:28:50.052Z,9.80
2023-02-02T19:30:54.484Z,9.77
2023-02-02T19:32:57.233Z,9.76
2023-02-02T19:35:01.463Z,9.76
2023-02-02T19:37:19.646Z,9.76
2023-02-02T19:39:28.209Z,9.76
2023-02-02T19:41:31.380Z,9.76
2023-02-02T19:43:36.476Z,9.76
2023-02-02T19:45:41.207Z,9.74
2023-02-02T19:47:45.353Z,9.76
2023-02-02T19:49:48.075Z,9.77
2023-02-02T19:51:54.077Z,9.76
2023-02-02T19:54:01.592Z,9.74
2023-02-02T19:56:22.033Z,9.76
2023-02-02T19:58:28.150Z,9.76
2023-02-02T20:00:33.555Z,9.78
2023-02-02T20:02:44.767Z,9.77
2023-02-02T20:04:48.161Z,9.79
2023-02-02T20:06:59.080Z,9.79
2023-02-02T20:09:10.951Z,9.81
2023-02-02T20:11:31.826Z,9.81
2023-02-02T20:13:39.754Z,9.81
2023-02-02T20:15:44.242Z,9.78
2023-02-02T20:17:47.087Z,9.74
2023-02-02T20:19:49.831Z,9.73
2023-02-02T20:21:53.903Z,9.72
2023-02-02T20:23:56.586Z,9.71
2023-02-02T20:25:59.619Z,9.70
2023-02-02T20:28:09.442Z,9.68
2023-02-02T20:30:24.997Z,9.66
2023-02-02T20:32:38.505Z,9.68
2023-02-02T20:34:44.437Z,9.69
2023-02-02T20:36:48.133Z,9.66
2023-02-02T20:38:50.852Z,9.66
2023-02-02T20:40:53.905Z,9.64
2023-02-02T20:42:58.171Z,9.63
2023-02-02T20:45:00.928Z,9.62
2023-02-02T20:47:04.835Z,9.63
2023-02-02T20:49:08.864Z,9.64
2023-02-02T20:51:11.874Z,9.64
2023-02-02T20:53:16.401Z,9.62
2023-02-02T20:55:19.146Z,9.58
2023-02-02T20:57:21.871Z,9.58
2023-02-02T20:59:25.317Z,9.58
2023-02-02T21:01:28.657Z,9.60
2023-02-02T21:03:31.360Z,9.61
2023-02-02T21:05:38.880Z,9.59
2023-02-02T21:07:41.699Z,9.61
2023-02-02T21:09:44.436Z,9.61
2023-02-02T21:11:47.853Z,9.62
2023-02-02T21:13:50.813Z,9.60
2023-02-02T21:15:53.681Z,9.62
2023-02-02T21:17:56.431Z,9.61
2023-02-02T21:19:59.247Z,9.59
2023-02-02T21:22:03.442Z,9.59
2023-02-02T21:24:07.393Z,9.58
2023-02-02T21:26:10.165Z,9.56
2023-02-02T21:28:15.345Z,9.54
2023-02-02T21:30:18.626Z,9.54
2023-02-02T21:32:21.289Z,9.52
2023-02-02T21:34:24.009Z,9.49
2023-02-02T21:36:33.562Z,9.48
2023-02-02T21:38:37.668Z,9.46
2023-02-02T21:40:41.314Z,9.46
2023-02-02T21:42:49.334Z,9.48
2023-02-02T21:44:56.175Z,9.49
2023-02-02T21:46:59.194Z,9.46
2023-02-02T21:49:02.553Z,9.46
